sensor_id;sensor_type;location;lat;lon;timestamp;P1;durP1;ratioP1;P2;durP2;ratioP2
80297;SDS011;69599;52.622;9.230;2024-03-17T00:01:32;5.00;;;1.17;;
80297;SDS011;69599;52.622;9.230;2024-03-17T00:03:57;5.40;;;1.67;;
80297;SDS011;69599;52.622;9.230;2024-03-17T00:06:24;3.83;;;1.52;;
80297;SDS011;69599;52.622;9.230;2024-03-17T00:08:50;8.90;;;1.45;;
80297;SDS011;69599;52.622;9.230;2024-03-17T00:11:21;8.15;;;1.63;;
80297;SDS011;69599;52.622;9.230;2024-03-17T00:13:46;6.82;;;1.85;;
80297;SDS011;69599;52.622;9.230;2024-03-17T00:16:13;6.60;;;1.95;;
80297;SDS011;69599;52.622;9.230;2024-03-17T00:18:39;4.90;;;1.70;;
80297;SDS011;69599;52.622;9.230;2024-03-17T00:21:05;9.55;;;1.55;;
80297;SDS011;69599;52.622;9.230;2024-03-17T00:23:31;4.40;;;1.80;;
80297;SDS011;69599;52.622;9.230;2024-03-17T00:25:56;6.88;;;1.70;;
80297;SDS011;69599;52.622;9.230;2024-03-17T00:28:22;8.68;;;1.65;;
80297;SDS011;69599;52.622;9.230;2024-03-17T00:30:48;6.97;;;2.00;;
80297;SDS011;69599;52.622;9.230;2024-03-17T00:33:13;5.38;;;1.70;;
80297;SDS011;69599;52.622;9.230;2024-03-17T00:35:39;4.78;;;1.73;;
80297;SDS011;69599;52.622;9.230;2024-03-17T00:38:04;5.50;;;1.67;;
80297;SDS011;69599;52.622;9.230;2024-03-17T00:40:35;7.20;;;2.37;;
80297;SDS011;69599;52.622;9.230;2024-03-17T00:43:05;4.13;;;1.80;;
80297;SDS011;69599;52.622;9.230;2024-03-17T00:45:31;6.93;;;2.47;;
80297;SDS011;69599;52.622;9.230;2024-03-17T00:47:56;5.85;;;1.25;;
80297;SDS011;69599;52.622;9.230;2024-03-17T00:50:22;7.60;;;2.10;;
80297;SDS011;69599;52.622;9.230;2024-03-17T00:52:47;6.93;;;1.73;;
80297;SDS011;69599;52.622;9.230;2024-03-17T00:55:12;6.32;;;1.65;;
80297;SDS011;69599;52.622;9.230;2024-03-17T00:57:39;7.88;;;2.10;;
80297;SDS011;69599;52.622;9.230;2024-03-17T01:00:05;10.40;;;2.15;;
80297;SDS011;69599;52.622;9.230;2024-03-17T01:02:31;7.97;;;1.73;;
80297;SDS011;69599;52.622;9.230;2024-03-17T01:04:56;8.55;;;2.00;;
80297;SDS011;69599;52.622;9.230;2024-03-17T01:07:22;4.10;;;1.80;;
80297;SDS011;69599;52.622;9.230;2024-03-17T01:09:47;7.32;;;1.70;;
80297;SDS011;69599;52.622;9.230;2024-03-17T01:12:13;5.35;;;1.98;;
80297;SDS011;69599;52.622;9.230;2024-03-17T01:14:39;5.35;;;1.70;;
80297;SDS011;69599;52.622;9.230;2024-03-17T01:17:05;4.90;;;1.70;;
80297;SDS011;69599;52.622;9.230;2024-03-17T01:19:31;6.47;;;1.60;;
80297;SDS011;69599;52.622;9.230;2024-03-17T01:21:57;5.28;;;1.58;;
80297;SDS011;69599;52.622;9.230;2024-03-17T01:24:22;10.15;;;2.00;;
80297;SDS011;69599;52.622;9.230;2024-03-17T01:26:49;4.78;;;1.67;;
80297;SDS011;69599;52.622;9.230;2024-03-17T01:29:16;10.43;;;1.88;;
80297;SDS011;69599;52.622;9.230;2024-03-17T01:31:41;8.40;;;1.70;;
80297;SDS011;69599;52.622;9.230;2024-03-17T01:34:07;7.95;;;1.80;;
80297;SDS011;69599;52.622;9.230;2024-03-17T01:36:32;9.70;;;2.30;;
80297;SDS011;69599;52.622;9.230;2024-03-17T01:38:58;6.35;;;2.10;;
80297;SDS011;69599;52.622;9.230;2024-03-17T01:41:24;11.10;;;1.88;;
80297;SDS011;69599;52.622;9.230;2024-03-17T01:43:50;5.68;;;1.40;;
80297;SDS011;69599;52.622;9.230;2024-03-17T01:46:16;6.15;;;3.08;;
80297;SDS011;69599;52.622;9.230;2024-03-17T01:48:42;7.25;;;1.52;;
80297;SDS011;69599;52.622;9.230;2024-03-17T01:51:08;6.57;;;1.95;;
80297;SDS011;69599;52.622;9.230;2024-03-17T01:53:36;3.47;;;1.20;;
80297;SDS011;69599;52.622;9.230;2024-03-17T01:56:02;7.45;;;1.98;;
80297;SDS011;69599;52.622;9.230;2024-03-17T01:58:29;6.03;;;1.58;;
80297;SDS011;69599;52.622;9.230;2024-03-17T02:00:55;7.70;;;1.63;;
80297;SDS011;69599;52.622;9.230;2024-03-17T02:03:21;6.45;;;1.70;;
80297;SDS011;69599;52.622;9.230;2024-03-17T02:05:46;6.18;;;1.92;;
80297;SDS011;69599;52.622;9.230;2024-03-17T02:08:12;7.97;;;2.00;;
80297;SDS011;69599;52.622;9.230;2024-03-17T02:10:38;4.80;;;1.55;;
80297;SDS011;69599;52.622;9.230;2024-03-17T02:13:03;5.55;;;1.85;;
80297;SDS011;69599;52.622;9.230;2024-03-17T02:15:30;8.80;;;1.75;;
80297;SDS011;69599;52.622;9.230;2024-03-17T02:17:57;5.78;;;1.48;;
80297;SDS011;69599;52.622;9.230;2024-03-17T02:20:22;5.90;;;2.35;;
80297;SDS011;69599;52.622;9.230;2024-03-17T02:23:06;5.55;;;1.15;;
80297;SDS011;69599;52.622;9.230;2024-03-17T02:25:32;5.70;;;1.50;;
80297;SDS011;69599;52.622;9.230;2024-03-17T02:27:57;4.93;;;1.50;;
80297;SDS011;69599;52.622;9.230;2024-03-17T02:30:23;6.45;;;2.13;;
80297;SDS011;69599;52.622;9.230;2024-03-17T02:32:51;6.13;;;1.80;;
80297;SDS011;69599;52.622;9.230;2024-03-17T02:35:17;6.95;;;1.70;;
80297;SDS011;69599;52.622;9.230;2024-03-17T02:37:43;6.18;;;1.50;;
80297;SDS011;69599;52.622;9.230;2024-03-17T02:40:08;7.53;;;2.10;;
80297;SDS011;69599;52.622;9.230;2024-03-17T02:42:35;4.40;;;1.83;;
80297;SDS011;69599;52.622;9.230;2024-03-17T02:45:03;5.03;;;1.33;;
80297;SDS011;69599;52.622;9.230;2024-03-17T02:47:29;4.10;;;1.90;;
80297;SDS011;69599;52.622;9.230;2024-03-17T02:49:55;5.90;;;1.50;;
80297;SDS011;69599;52.622;9.230;2024-03-17T02:52:20;2.75;;;1.15;;
80297;SDS011;69599;52.622;9.230;2024-03-17T02:54:46;5.10;;;1.50;;
80297;SDS011;69599;52.622;9.230;2024-03-17T02:57:11;6.45;;;1.50;;
80297;SDS011;69599;52.622;9.230;2024-03-17T02:59:36;4.78;;;1.92;;
80297;SDS011;69599;52.622;9.230;2024-03-17T03:02:02;7.03;;;1.98;;
80297;SDS011;69599;52.622;9.230;2024-03-17T03:04:27;4.50;;;1.55;;
80297;SDS011;69599;52.622;9.230;2024-03-17T03:06:53;5.75;;;1.73;;
80297;SDS011;69599;52.622;9.230;2024-03-17T03:09:18;3.95;;;1.38;;
80297;SDS011;69599;52.622;9.230;2024-03-17T03:12:02;4.40;;;1.45;;
80297;SDS011;69599;52.622;9.230;2024-03-17T03:14:28;4.13;;;1.52;;
80297;SDS011;69599;52.622;9.230;2024-03-17T03:16:54;7.85;;;1.80;;
80297;SDS011;69599;52.622;9.230;2024-03-17T03:19:19;5.65;;;1.80;;
80297;SDS011;69599;52.622;9.230;2024-03-17T03:21:45;5.55;;;1.55;;
80297;SDS011;69599;52.622;9.230;2024-03-17T03:24:11;7.55;;;1.67;;
80297;SDS011;69599;52.622;9.230;2024-03-17T03:26:37;6.40;;;1.95;;
80297;SDS011;69599;52.622;9.230;2024-03-17T03:29:03;7.13;;;2.17;;
80297;SDS011;69599;52.622;9.230;2024-03-17T03:31:30;5.18;;;1.80;;
80297;SDS011;69599;52.622;9.230;2024-03-17T03:33:57;5.65;;;1.73;;
80297;SDS011;69599;52.622;9.230;2024-03-17T03:36:22;5.50;;;2.00;;
80297;SDS011;69599;52.622;9.230;2024-03-17T03:38:48;4.43;;;1.80;;
80297;SDS011;69599;52.622;9.230;2024-03-17T03:41:14;5.28;;;1.60;;
80297;SDS011;69599;52.622;9.230;2024-03-17T03:43:41;3.10;;;1.52;;
80297;SDS011;69599;52.622;9.230;2024-03-17T03:46:06;6.43;;;1.77;;
80297;SDS011;69599;52.622;9.230;2024-03-17T03:48:32;5.70;;;1.67;;
80297;SDS011;69599;52.622;9.230;2024-03-17T03:50:59;4.43;;;2.03;;
80297;SDS011;69599;52.622;9.230;2024-03-17T03:53:28;4.65;;;1.95;;
80297;SDS011;69599;52.622;9.230;2024-03-17T03:55:54;7.05;;;1.92;;
80297;SDS011;69599;52.622;9.230;2024-03-17T03:58:19;9.02;;;2.38;;
80297;SDS011;69599;52.622;9.230;2024-03-17T04:00:46;6.57;;;2.33;;
80297;SDS011;69599;52.622;9.230;2024-03-17T04:03:11;3.85;;;1.77;;
80297;SDS011;69599;52.622;9.230;2024-03-17T04:05:37;6.97;;;1.95;;
80297;SDS011;69599;52.622;9.230;2024-03-17T04:08:02;5.55;;;3.10;;
80297;SDS011;69599;52.622;9.230;2024-03-17T04:10:28;7.80;;;2.00;;
80297;SDS011;69599;52.622;9.230;2024-03-17T04:12:53;6.30;;;1.90;;
80297;SDS011;69599;52.622;9.230;2024-03-17T04:15:19;6.40;;;1.92;;
80297;SDS011;69599;52.622;9.230;2024-03-17T04:17:45;9.52;;;2.10;;
80297;SDS011;69599;52.622;9.230;2024-03-17T04:20:10;5.13;;;2.35;;
80297;SDS011;69599;52.622;9.230;2024-03-17T04:22:39;6.55;;;1.80;;
80297;SDS011;69599;52.622;9.230;2024-03-17T04:25:05;7.50;;;2.10;;
80297;SDS011;69599;52.622;9.230;2024-03-17T04:27:31;5.88;;;1.80;;
80297;SDS011;69599;52.622;9.230;2024-03-17T04:29:57;3.25;;;1.50;;
80297;SDS011;69599;52.622;9.230;2024-03-17T04:32:24;6.15;;;2.00;;
80297;SDS011;69599;52.622;9.230;2024-03-17T04:34:49;6.10;;;1.75;;
80297;SDS011;69599;52.622;9.230;2024-03-17T04:37:15;6.28;;;2.10;;
80297;SDS011;69599;52.622;9.230;2024-03-17T04:39:42;6.65;;;2.30;;
80297;SDS011;69599;52.622;9.230;2024-03-17T04:42:10;9.13;;;2.08;;
80297;SDS011;69599;52.622;9.230;2024-03-17T04:44:36;3.55;;;1.95;;
80297;SDS011;69599;52.622;9.230;2024-03-17T04:47:02;5.25;;;1.90;;
80297;SDS011;69599;52.622;9.230;2024-03-17T04:49:32;4.90;;;2.03;;
80297;SDS011;69599;52.622;9.230;2024-03-17T04:52:03;7.93;;;1.83;;
80297;SDS011;69599;52.622;9.230;2024-03-17T04:54:30;7.28;;;2.08;;
80297;SDS011;69599;52.622;9.230;2024-03-17T04:56:56;7.88;;;1.48;;
80297;SDS011;69599;52.622;9.230;2024-03-17T04:59:21;7.03;;;1.95;;
80297;SDS011;69599;52.622;9.230;2024-03-17T05:01:47;6.22;;;2.38;;
80297;SDS011;69599;52.622;9.230;2024-03-17T05:04:13;8.43;;;2.38;;
80297;SDS011;69599;52.622;9.230;2024-03-17T05:06:39;7.15;;;2.28;;
80297;SDS011;69599;52.622;9.230;2024-03-17T05:09:06;6.30;;;2.17;;
80297;SDS011;69599;52.622;9.230;2024-03-17T05:11:32;5.47;;;2.00;;
80297;SDS011;69599;52.622;9.230;2024-03-17T05:14:00;8.63;;;2.25;;
80297;SDS011;69599;52.622;9.230;2024-03-17T05:16:25;4.55;;;1.77;;
80297;SDS011;69599;52.622;9.230;2024-03-17T05:18:53;5.95;;;2.50;;
80297;SDS011;69599;52.622;9.230;2024-03-17T05:21:18;7.10;;;1.60;;
80297;SDS011;69599;52.622;9.230;2024-03-17T05:23:44;3.17;;;1.88;;
80297;SDS011;69599;52.622;9.230;2024-03-17T05:26:09;6.57;;;1.90;;
80297;SDS011;69599;52.622;9.230;2024-03-17T05:28:35;4.72;;;2.05;;
80297;SDS011;69599;52.622;9.230;2024-03-17T05:31:00;11.77;;;2.53;;
80297;SDS011;69599;52.622;9.230;2024-03-17T05:33:26;3.67;;;2.13;;
80297;SDS011;69599;52.622;9.230;2024-03-17T05:35:52;7.10;;;2.25;;
80297;SDS011;69599;52.622;9.230;2024-03-17T05:38:28;6.00;;;2.08;;
80297;SDS011;69599;52.622;9.230;2024-03-17T05:40:55;6.35;;;1.75;;
80297;SDS011;69599;52.622;9.230;2024-03-17T05:43:28;8.60;;;2.63;;
80297;SDS011;69599;52.622;9.230;2024-03-17T05:45:56;7.90;;;2.60;;
80297;SDS011;69599;52.622;9.230;2024-03-17T05:48:22;5.85;;;2.13;;
80297;SDS011;69599;52.622;9.230;2024-03-17T05:50:49;6.43;;;2.00;;
80297;SDS011;69599;52.622;9.230;2024-03-17T05:53:16;8.73;;;2.28;;
80297;SDS011;69599;52.622;9.230;2024-03-17T05:55:43;5.00;;;2.20;;
80297;SDS011;69599;52.622;9.230;2024-03-17T05:58:08;7.80;;;2.65;;
80297;SDS011;69599;52.622;9.230;2024-03-17T06:00:38;5.82;;;2.00;;
80297;SDS011;69599;52.622;9.230;2024-03-17T06:03:04;5.03;;;1.80;;
80297;SDS011;69599;52.622;9.230;2024-03-17T06:05:33;7.70;;;2.08;;
80297;SDS011;69599;52.622;9.230;2024-03-17T06:08:03;6.25;;;2.53;;
80297;SDS011;69599;52.622;9.230;2024-03-17T06:10:33;4.10;;;1.98;;
80297;SDS011;69599;52.622;9.230;2024-03-17T06:12:59;6.78;;;2.63;;
80297;SDS011;69599;52.622;9.230;2024-03-17T06:15:25;3.67;;;1.80;;
80297;SDS011;69599;52.622;9.230;2024-03-17T06:17:51;5.60;;;2.28;;
80297;SDS011;69599;52.622;9.230;2024-03-17T06:20:20;4.85;;;2.15;;
80297;SDS011;69599;52.622;9.230;2024-03-17T06:22:47;5.70;;;2.20;;
80297;SDS011;69599;52.622;9.230;2024-03-17T06:25:15;6.68;;;2.42;;
80297;SDS011;69599;52.622;9.230;2024-03-17T06:28:03;6.30;;;2.25;;
80297;SDS011;69599;52.622;9.230;2024-03-17T06:30:29;6.75;;;2.42;;
80297;SDS011;69599;52.622;9.230;2024-03-17T06:32:54;7.00;;;2.08;;
80297;SDS011;69599;52.622;9.230;2024-03-17T06:35:19;7.20;;;3.28;;
80297;SDS011;69599;52.622;9.230;2024-03-17T06:37:45;7.47;;;2.30;;
80297;SDS011;69599;52.622;9.230;2024-03-17T06:40:12;5.80;;;2.50;;
80297;SDS011;69599;52.622;9.230;2024-03-17T06:42:38;8.73;;;2.38;;
80297;SDS011;69599;52.622;9.230;2024-03-17T06:45:04;4.72;;;1.80;;
80297;SDS011;69599;52.622;9.230;2024-03-17T06:47:30;5.03;;;2.42;;
80297;SDS011;69599;52.622;9.230;2024-03-17T06:49:57;8.50;;;2.42;;
80297;SDS011;69599;52.622;9.230;2024-03-17T06:52:23;6.65;;;2.80;;
80297;SDS011;69599;52.622;9.230;2024-03-17T06:54:48;4.53;;;2.60;;
80297;SDS011;69599;52.622;9.230;2024-03-17T06:57:15;7.25;;;2.85;;
80297;SDS011;69599;52.622;9.230;2024-03-17T06:59:40;8.32;;;2.33;;
80297;SDS011;69599;52.622;9.230;2024-03-17T07:02:06;9.90;;;2.97;;
80297;SDS011;69599;52.622;9.230;2024-03-17T07:04:32;9.25;;;3.53;;
80297;SDS011;69599;52.622;9.230;2024-03-17T07:06:57;8.15;;;3.10;;
80297;SDS011;69599;52.622;9.230;2024-03-17T07:09:23;8.48;;;4.50;;
80297;SDS011;69599;52.622;9.230;2024-03-17T07:11:49;7.38;;;3.13;;
80297;SDS011;69599;52.622;9.230;2024-03-17T07:14:14;7.07;;;3.60;;
80297;SDS011;69599;52.622;9.230;2024-03-17T07:16:39;10.35;;;5.00;;
80297;SDS011;69599;52.622;9.230;2024-03-17T07:19:05;7.43;;;4.00;;
80297;SDS011;69599;52.622;9.230;2024-03-17T07:21:30;8.65;;;3.60;;
80297;SDS011;69599;52.622;9.230;2024-03-17T07:23:59;6.28;;;3.90;;
80297;SDS011;69599;52.622;9.230;2024-03-17T07:28:54;6.97;;;3.78;;
80297;SDS011;69599;52.622;9.230;2024-03-17T07:31:20;7.45;;;3.30;;
80297;SDS011;69599;52.622;9.230;2024-03-17T07:33:45;7.65;;;4.05;;
80297;SDS011;69599;52.622;9.230;2024-03-17T07:36:11;7.60;;;3.83;;
80297;SDS011;69599;52.622;9.230;2024-03-17T07:38:36;14.18;;;3.60;;
80297;SDS011;69599;52.622;9.230;2024-03-17T07:41:03;11.38;;;4.88;;
80297;SDS011;69599;52.622;9.230;2024-03-17T07:43:30;6.22;;;3.00;;
80297;SDS011;69599;52.622;9.230;2024-03-17T07:46:04;9.82;;;3.63;;
80297;SDS011;69599;52.622;9.230;2024-03-17T07:48:30;6.45;;;3.25;;
80297;SDS011;69599;52.622;9.230;2024-03-17T07:50:58;11.48;;;3.10;;
80297;SDS011;69599;52.622;9.230;2024-03-17T07:53:25;10.93;;;3.70;;
80297;SDS011;69599;52.622;9.230;2024-03-17T07:55:58;13.95;;;3.28;;
80297;SDS011;69599;52.622;9.230;2024-03-17T07:58:28;8.45;;;2.28;;
80297;SDS011;69599;52.622;9.230;2024-03-17T08:00:57;7.13;;;2.95;;
80297;SDS011;69599;52.622;9.230;2024-03-17T08:03:30;12.20;;;3.17;;
80297;SDS011;69599;52.622;9.230;2024-03-17T08:06:00;12.70;;;3.47;;
80297;SDS011;69599;52.622;9.230;2024-03-17T08:08:27;9.98;;;2.78;;
80297;SDS011;69599;52.622;9.230;2024-03-17T08:10:53;8.73;;;2.15;;
80297;SDS011;69599;52.622;9.230;2024-03-17T08:13:19;7.53;;;2.30;;
80297;SDS011;69599;52.622;9.230;2024-03-17T08:15:46;7.60;;;2.58;;
80297;SDS011;69599;52.622;9.230;2024-03-17T08:18:12;10.10;;;2.17;;
80297;SDS011;69599;52.622;9.230;2024-03-17T08:20:41;12.13;;;1.88;;
80297;SDS011;69599;52.622;9.230;2024-03-17T08:23:11;8.32;;;2.40;;
80297;SDS011;69599;52.622;9.230;2024-03-17T08:25:38;9.70;;;2.00;;
80297;SDS011;69599;52.622;9.230;2024-03-17T08:28:04;9.80;;;1.95;;
80297;SDS011;69599;52.622;9.230;2024-03-17T08:30:31;9.95;;;1.73;;
80297;SDS011;69599;52.622;9.230;2024-03-17T08:32:56;10.93;;;1.70;;
80297;SDS011;69599;52.622;9.230;2024-03-17T08:35:22;7.43;;;1.55;;
80297;SDS011;69599;52.622;9.230;2024-03-17T08:37:48;6.80;;;1.98;;
80297;SDS011;69599;52.622;9.230;2024-03-17T08:40:13;8.60;;;1.90;;
80297;SDS011;69599;52.622;9.230;2024-03-17T08:42:39;6.82;;;1.77;;
80297;SDS011;69599;52.622;9.230;2024-03-17T08:45:05;11.10;;;2.60;;
80297;SDS011;69599;52.622;9.230;2024-03-17T08:47:31;6.80;;;2.33;;
80297;SDS011;69599;52.622;9.230;2024-03-17T08:49:57;4.03;;;1.60;;
80297;SDS011;69599;52.622;9.230;2024-03-17T08:52:23;12.27;;;3.00;;
80297;SDS011;69599;52.622;9.230;2024-03-17T08:54:49;10.77;;;1.90;;
80297;SDS011;69599;52.622;9.230;2024-03-17T08:57:16;7.03;;;2.53;;
80297;SDS011;69599;52.622;9.230;2024-03-17T08:59:42;11.93;;;2.05;;
80297;SDS011;69599;52.622;9.230;2024-03-17T09:02:10;5.50;;;1.90;;
80297;SDS011;69599;52.622;9.230;2024-03-17T09:04:37;4.93;;;1.83;;
80297;SDS011;69599;52.622;9.230;2024-03-17T09:07:02;5.57;;;1.85;;
80297;SDS011;69599;52.622;9.230;2024-03-17T09:09:29;8.52;;;1.88;;
80297;SDS011;69599;52.622;9.230;2024-03-17T09:11:54;9.75;;;1.35;;
80297;SDS011;69599;52.622;9.230;2024-03-17T09:14:20;8.43;;;1.67;;
80297;SDS011;69599;52.622;9.230;2024-03-17T09:16:47;4.40;;;1.50;;
80297;SDS011;69599;52.622;9.230;2024-03-17T09:19:12;6.60;;;1.77;;
80297;SDS011;69599;52.622;9.230;2024-03-17T09:21:38;11.60;;;2.35;;
80297;SDS011;69599;52.622;9.230;2024-03-17T09:24:05;5.15;;;1.33;;
80297;SDS011;69599;52.622;9.230;2024-03-17T09:26:32;9.05;;;1.98;;
80297;SDS011;69599;52.622;9.230;2024-03-17T09:28:59;8.23;;;2.20;;
80297;SDS011;69599;52.622;9.230;2024-03-17T09:31:25;10.32;;;2.13;;
80297;SDS011;69599;52.622;9.230;2024-03-17T09:33:55;7.47;;;1.90;;
80297;SDS011;69599;52.622;9.230;2024-03-17T09:36:21;10.95;;;2.67;;
80297;SDS011;69599;52.622;9.230;2024-03-17T09:38:47;5.85;;;1.42;;
80297;SDS011;69599;52.622;9.230;2024-03-17T09:41:31;6.38;;;1.55;;
80297;SDS011;69599;52.622;9.230;2024-03-17T09:43:57;5.93;;;1.83;;
80297;SDS011;69599;52.622;9.230;2024-03-17T09:46:23;7.13;;;1.70;;
80297;SDS011;69599;52.622;9.230;2024-03-17T09:48:50;7.13;;;1.67;;
80297;SDS011;69599;52.622;9.230;2024-03-17T09:51:20;6.18;;;1.88;;
80297;SDS011;69599;52.622;9.230;2024-03-17T09:53:47;4.32;;;1.60;;
80297;SDS011;69599;52.622;9.230;2024-03-17T09:56:13;8.52;;;1.70;;
80297;SDS011;69599;52.622;9.230;2024-03-17T09:58:41;4.65;;;1.33;;
80297;SDS011;69599;52.622;9.230;2024-03-17T10:01:14;5.45;;;1.25;;
80297;SDS011;69599;52.622;9.230;2024-03-17T10:06:26;7.15;;;1.88;;
80297;SDS011;69599;52.622;9.230;2024-03-17T10:08:55;8.80;;;2.92;;
80297;SDS011;69599;52.622;9.230;2024-03-17T10:11:31;7.93;;;1.80;;
80297;SDS011;69599;52.622;9.230;2024-03-17T10:14:02;10.50;;;2.13;;
80297;SDS011;69599;52.622;9.230;2024-03-17T10:16:30;7.13;;;1.63;;
80297;SDS011;69599;52.622;9.230;2024-03-17T10:19:16;10.70;;;2.60;;
80297;SDS011;69599;52.622;9.230;2024-03-17T10:21:47;5.97;;;1.92;;
80297;SDS011;69599;52.622;9.230;2024-03-17T10:26:56;5.72;;;1.52;;
80297;SDS011;69599;52.622;9.230;2024-03-17T10:29:35;7.43;;;2.03;;
80297;SDS011;69599;52.622;9.230;2024-03-17T10:32:16;6.05;;;1.85;;
80297;SDS011;69599;52.622;9.230;2024-03-17T10:34:44;7.30;;;2.20;;
80297;SDS011;69599;52.622;9.230;2024-03-17T10:37:10;6.30;;;1.55;;
80297;SDS011;69599;52.622;9.230;2024-03-17T10:39:40;9.40;;;2.22;;
80297;SDS011;69599;52.622;9.230;2024-03-17T10:42:06;5.57;;;1.85;;
80297;SDS011;69599;52.622;9.230;2024-03-17T10:44:37;4.55;;;1.80;;
80297;SDS011;69599;52.622;9.230;2024-03-17T10:47:05;7.65;;;1.85;;
80297;SDS011;69599;52.622;9.230;2024-03-17T10:49:35;3.58;;;1.70;;
80297;SDS011;69599;52.622;9.230;2024-03-17T10:52:02;4.53;;;1.58;;
80297;SDS011;69599;52.622;9.230;2024-03-17T10:54:31;8.02;;;2.53;;
80297;SDS011;69599;52.622;9.230;2024-03-17T10:57:04;5.32;;;2.20;;
80297;SDS011;69599;52.622;9.230;2024-03-17T10:59:50;6.30;;;2.60;;
80297;SDS011;69599;52.622;9.230;2024-03-17T11:04:56;7.40;;;3.17;;
80297;SDS011;69599;52.622;9.230;2024-03-17T11:07:23;6.35;;;2.38;;
80297;SDS011;69599;52.622;9.230;2024-03-17T11:09:50;5.57;;;3.33;;
80297;SDS011;69599;52.622;9.230;2024-03-17T11:17:50;4.95;;;2.90;;
80297;SDS011;69599;52.622;9.230;2024-03-17T11:20:23;8.07;;;3.55;;
80297;SDS011;69599;52.622;9.230;2024-03-17T11:22:50;7.40;;;3.15;;
80297;SDS011;69599;52.622;9.230;2024-03-17T11:27:55;9.77;;;3.25;;
80297;SDS011;69599;52.622;9.230;2024-03-17T11:38:52;6.05;;;2.75;;
80297;SDS011;69599;52.622;9.230;2024-03-17T11:44:12;6.97;;;3.05;;
80297;SDS011;69599;52.622;9.230;2024-03-17T11:46:41;6.95;;;3.08;;
80297;SDS011;69599;52.622;9.230;2024-03-17T11:49:25;7.78;;;3.15;;
80297;SDS011;69599;52.622;9.230;2024-03-17T11:51:54;7.97;;;3.15;;
80297;SDS011;69599;52.622;9.230;2024-03-17T11:54:25;5.75;;;2.75;;
80297;SDS011;69599;52.622;9.230;2024-03-17T11:56:53;6.75;;;3.30;;
80297;SDS011;69599;52.622;9.230;2024-03-17T11:59:19;7.70;;;3.47;;
80297;SDS011;69599;52.622;9.230;2024-03-17T12:01:48;8.27;;;3.10;;
80297;SDS011;69599;52.622;9.230;2024-03-17T12:04:39;9.02;;;3.17;;
80297;SDS011;69599;52.622;9.230;2024-03-17T12:07:07;7.28;;;3.67;;
80297;SDS011;69599;52.622;9.230;2024-03-17T12:09:36;4.80;;;2.80;;
80297;SDS011;69599;52.622;9.230;2024-03-17T12:12:02;5.95;;;2.92;;
80297;SDS011;69599;52.622;9.230;2024-03-17T12:14:29;5.72;;;3.40;;
80297;SDS011;69599;52.622;9.230;2024-03-17T12:16:56;5.53;;;2.90;;
80297;SDS011;69599;52.622;9.230;2024-03-17T12:19:22;8.00;;;3.17;;
80297;SDS011;69599;52.622;9.230;2024-03-17T12:21:49;6.35;;;3.10;;
80297;SDS011;69599;52.622;9.230;2024-03-17T12:24:17;8.88;;;3.60;;
80297;SDS011;69599;52.622;9.230;2024-03-17T12:26:49;9.88;;;3.25;;
80297;SDS011;69599;52.622;9.230;2024-03-17T12:31:59;4.10;;;3.20;;
80297;SDS011;69599;52.622;9.230;2024-03-17T12:34:27;10.38;;;3.95;;
80297;SDS011;69599;52.622;9.230;2024-03-17T12:36:53;6.70;;;3.30;;
80297;SDS011;69599;52.622;9.230;2024-03-17T12:39:21;6.90;;;3.22;;
80297;SDS011;69599;52.622;9.230;2024-03-17T12:42:07;9.18;;;3.47;;
80297;SDS011;69599;52.622;9.230;2024-03-17T12:44:37;10.60;;;3.70;;
80297;SDS011;69599;52.622;9.230;2024-03-17T12:47:16;7.97;;;3.33;;
80297;SDS011;69599;52.622;9.230;2024-03-17T12:50:00;8.80;;;2.75;;
80297;SDS011;69599;52.622;9.230;2024-03-17T12:52:30;8.60;;;2.90;;
80297;SDS011;69599;52.622;9.230;2024-03-17T12:55:03;8.70;;;3.70;;
80297;SDS011;69599;52.622;9.230;2024-03-17T13:00:33;10.02;;;3.95;;
80297;SDS011;69599;52.622;9.230;2024-03-17T13:03:00;6.05;;;2.67;;
80297;SDS011;69599;52.622;9.230;2024-03-17T13:05:27;5.72;;;3.13;;
80297;SDS011;69599;52.622;9.230;2024-03-17T13:07:53;5.07;;;3.13;;
80297;SDS011;69599;52.622;9.230;2024-03-17T13:10:23;6.90;;;2.67;;
80297;SDS011;69599;52.622;9.230;2024-03-17T13:13:01;6.40;;;3.20;;
80297;SDS011;69599;52.622;9.230;2024-03-17T13:15:31;6.15;;;2.63;;
80297;SDS011;69599;52.622;9.230;2024-03-17T13:17:57;7.53;;;2.88;;
80297;SDS011;69599;52.622;9.230;2024-03-17T13:20:31;9.10;;;2.97;;
80297;SDS011;69599;52.622;9.230;2024-03-17T13:22:57;8.52;;;2.92;;
80297;SDS011;69599;52.622;9.230;2024-03-17T13:25:25;5.32;;;2.90;;
80297;SDS011;69599;52.622;9.230;2024-03-17T13:27:54;6.85;;;3.17;;
80297;SDS011;69599;52.622;9.230;2024-03-17T13:30:20;7.25;;;2.97;;
80297;SDS011;69599;52.622;9.230;2024-03-17T13:32:49;7.38;;;2.83;;
80297;SDS011;69599;52.622;9.230;2024-03-17T13:35:21;5.07;;;2.60;;
80297;SDS011;69599;52.622;9.230;2024-03-17T13:37:48;7.35;;;2.63;;
80297;SDS011;69599;52.622;9.230;2024-03-17T13:40:15;8.70;;;3.15;;
80297;SDS011;69599;52.622;9.230;2024-03-17T13:42:43;7.63;;;3.58;;
80297;SDS011;69599;52.622;9.230;2024-03-17T13:45:14;4.45;;;2.35;;
80297;SDS011;69599;52.622;9.230;2024-03-17T13:47:40;7.63;;;2.85;;
80297;SDS011;69599;52.622;9.230;2024-03-17T13:50:06;7.18;;;2.97;;
80297;SDS011;69599;52.622;9.230;2024-03-17T13:52:44;6.13;;;2.80;;
80297;SDS011;69599;52.622;9.230;2024-03-17T13:55:12;4.88;;;3.08;;
80297;SDS011;69599;52.622;9.230;2024-03-17T13:57:51;6.93;;;3.72;;
80297;SDS011;69599;52.622;9.230;2024-03-17T14:00:25;6.55;;;2.88;;
80297;SDS011;69599;52.622;9.230;2024-03-17T14:02:52;5.78;;;2.90;;
80297;SDS011;69599;52.622;9.230;2024-03-17T14:05:19;5.13;;;2.70;;
80297;SDS011;69599;52.622;9.230;2024-03-17T14:07:46;5.70;;;3.05;;
80297;SDS011;69599;52.622;9.230;2024-03-17T14:10:13;7.97;;;3.47;;
80297;SDS011;69599;52.622;9.230;2024-03-17T14:12:41;7.78;;;3.42;;
80297;SDS011;69599;52.622;9.230;2024-03-17T14:15:07;8.80;;;2.97;;
80297;SDS011;69599;52.622;9.230;2024-03-17T14:17:39;6.28;;;2.78;;
80297;SDS011;69599;52.622;9.230;2024-03-17T14:20:06;5.03;;;2.40;;
80297;SDS011;69599;52.622;9.230;2024-03-17T14:22:37;5.53;;;2.70;;
80297;SDS011;69599;52.622;9.230;2024-03-17T14:25:06;4.40;;;2.60;;
80297;SDS011;69599;52.622;9.230;2024-03-17T14:27:34;7.30;;;3.08;;
80297;SDS011;69599;52.622;9.230;2024-03-17T14:30:02;7.43;;;3.58;;
80297;SDS011;69599;52.622;9.230;2024-03-17T14:32:29;5.78;;;3.28;;
80297;SDS011;69599;52.622;9.230;2024-03-17T14:34:55;6.40;;;2.80;;
80297;SDS011;69599;52.622;9.230;2024-03-17T14:37:23;7.35;;;3.25;;
80297;SDS011;69599;52.622;9.230;2024-03-17T14:39:51;8.02;;;3.20;;
80297;SDS011;69599;52.622;9.230;2024-03-17T14:44:44;6.90;;;2.78;;
80297;SDS011;69599;52.622;9.230;2024-03-17T14:47:10;6.60;;;2.97;;
80297;SDS011;69599;52.622;9.230;2024-03-17T14:49:36;8.25;;;3.30;;
80297;SDS011;69599;52.622;9.230;2024-03-17T14:52:01;8.60;;;5.20;;
80297;SDS011;69599;52.622;9.230;2024-03-17T14:54:30;8.57;;;2.85;;
80297;SDS011;69599;52.622;9.230;2024-03-17T14:56:56;7.22;;;3.45;;
80297;SDS011;69599;52.622;9.230;2024-03-17T14:59:22;4.70;;;3.03;;
80297;SDS011;69599;52.622;9.230;2024-03-17T15:01:47;9.27;;;3.10;;
80297;SDS011;69599;52.622;9.230;2024-03-17T15:04:14;5.47;;;3.10;;
80297;SDS011;69599;52.622;9.230;2024-03-17T15:06:43;4.97;;;3.10;;
80297;SDS011;69599;52.622;9.230;2024-03-17T15:09:08;9.15;;;4.03;;
80297;SDS011;69599;52.622;9.230;2024-03-17T15:11:34;8.43;;;3.80;;
80297;SDS011;69599;52.622;9.230;2024-03-17T15:14:00;6.20;;;3.22;;
80297;SDS011;69599;52.622;9.230;2024-03-17T15:16:26;8.18;;;3.55;;
80297;SDS011;69599;52.622;9.230;2024-03-17T15:18:52;4.75;;;2.53;;
80297;SDS011;69599;52.622;9.230;2024-03-17T15:21:18;6.18;;;3.30;;
80297;SDS011;69599;52.622;9.230;2024-03-17T15:23:44;7.13;;;2.72;;
80297;SDS011;69599;52.622;9.230;2024-03-17T15:26:10;6.20;;;3.45;;